< < Back
Terminal Aerodrome Forecast


Current Version              Previous Versions:   1  2  3  4  5  6  7  8  9  

Terminal Aerodrome Forecast

466
FTUS44 KHUN 061722
TAFHSV
TAF
KHSV 061722Z 0618/0718 01005KT P6SM SCT120 BKN250
     FM070000 VRB03KT P6SM SCT090
     FM070600 VRB02KT P6SM SKC
     FM071600 29005KT P6SM SKC=

Latest METAR

652
SAUS80 KWBC 071000 RRB
MTRHSV
METAR KHSV 070953Z AUTO 00000KT 10SM CLR M01/M03 A3021 RMK AO2 SLP233
T10111033


USA.gov is the U.S. government's official web portal to all federal, state and local government web resources and services.